Accueil
METAR-TAF:

METAR-TAF

Aéroports :

Laupheim, Allemagne

latitude: 48-13N, longitude: 009-55E, altitude: 538 m

Observation

Le bulletin a été fait il y a 52 minutes, à 17:20 UTC
Vent 7 kt de nord/nord-est avec des rafales jusqu'à 17 kt
Température 2°C
Humidité 93%
Pression 1019 hPa
Visibilité: 5000 m
Nuages fragmentés à une hauteur de 500 ft
Nuages fragmentés à une hauteur de 1000 ft
pluie faible, neige, brume

METAR: ETHL 291720Z 02007G17KT 5000 -RASN BR BKN005 BKN010 02/01 Q1019 RERA YLO

Heure: 20:12 (18:12 UTC)


TAF: absent

Observations et prévisions météorologiques de plus de 4000 aéroports (messages METAR et TAF).

Les stations disponibles sont représentées par des disques jaunes et rouges sur la carte.

Passer la souris dessus pour voir le nom de la station.

Cliquer dessus pour voir les observations et prévisions météorologiques.

Pour changer de carte: cliquez sur les boutons verts avec une croix noire pour zoomer, sur le bouton vert avec un tiret pour effectuer un zoom arrière, ou sur les flèches vertes pour les cartes adjacentes.


METAR-TAF: